Time;durP1;ratioP1;P1;durP2;ratioP2;P2;SDS_P1;SDS_P2;PMS_P1;PMS_P2;Temp;Humidity;BMP_temperature;BMP_pressure;BME280_temperature;BME280_humidity;BME280_pressure;Samples;Min_cycle;Max_cycle;Signal;HPM_P1;HPM_P2
2022/04/04 00:00:18;;;;;;;9.50;5.40;;;;;;;1.29;80.35;101847.44;4987036;28;20034;-61
2022/04/04 00:02:43;;;;;;;8.05;5.38;;;;;;;1.26;80.43;101842.41;4987232;28;20374;-61
2022/04/04 00:05:10;;;;;;;8.07;5.10;;;;;;;1.27;80.31;101828.78;4997143;28;20418;-61
2022/04/04 00:07:36;;;;;;;9.57;5.53;;;;;;;1.25;80.82;101822.84;5006065;28;20441;-61
2022/04/04 00:10:02;;;;;;;9.27;5.82;;;;;;;1.30;80.71;101818.44;5006654;28;20603;-62
2022/04/04 00:12:27;;;;;;;8.30;5.47;;;;;;;1.30;80.79;101821.00;5006876;28;20033;-61
2022/04/04 00:14:52;;;;;;;9.20;5.45;;;;;;;1.35;80.53;101820.88;5006687;28;20050;-60
2022/04/04 00:17:18;;;;;;;8.57;6.10;;;;;;;1.36;80.43;101805.50;5006586;28;20365;-61
2022/04/04 00:19:43;;;;;;;9.55;6.72;;;;;;;1.36;80.81;101808.06;5006442;28;20036;-61
2022/04/04 00:22:08;;;;;;;9.50;5.90;;;;;;;1.33;80.36;101803.06;4988610;28;20485;-61
2022/04/04 00:24:35;;;;;;;9.18;5.80;;;;;;;1.30;80.67;101803.13;5006797;28;20037;-61
2022/04/04 00:27:01;;;;;;;9.40;6.15;;;;;;;1.35;80.24;101796.16;5006304;28;20021;-63
2022/04/04 00:29:27;;;;;;;9.18;6.05;;;;;;;1.28;80.60;101789.56;4986696;28;20204;-61
2022/04/04 00:31:53;;;;;;;9.32;5.82;;;;;;;1.30;80.59;101790.34;4986530;28;20065;-60
2022/04/04 00:34:18;;;;;;;8.85;5.90;;;;;;;1.30;80.39;101783.50;4999363;28;20026;-60
2022/04/04 00:36:45;;;;;;;10.27;6.30;;;;;;;1.29;80.46;101781.00;5005905;28;20112;-62
2022/04/04 00:39:11;;;;;;;9.07;6.25;;;;;;;1.27;80.61;101778.50;5006447;28;20438;-60
2022/04/04 00:41:36;;;;;;;9.90;6.47;;;;;;;1.26;80.65;101783.63;5006179;28;20521;-62
2022/04/04 00:44:02;;;;;;;9.50;6.78;;;;;;;1.24;80.34;101772.63;4997695;28;20048;-60
2022/04/04 00:46:27;;;;;;;8.75;6.18;;;;;;;1.21;80.43;101770.16;5006161;28;20029;-61
2022/04/04 00:48:53;;;;;;;11.93;6.72;;;;;;;1.21;80.45;101775.28;5006276;28;20022;-61
2022/04/04 00:51:19;;;;;;;11.00;6.80;;;;;;;1.17;80.82;101766.00;5006008;28;20030;-60
2022/04/04 00:53:44;;;;;;;9.60;6.70;;;;;;;1.17;80.62;101761.75;5010064;28;20382;-63
2022/04/04 00:56:11;;;;;;;11.68;7.30;;;;;;;1.13;80.49;101749.91;5009249;28;20494;-60
2022/04/04 00:58:38;;;;;;;9.90;6.63;;;;;;;1.10;80.30;101744.06;5009960;28;20437;-61
2022/04/04 01:01:04;;;;;;;10.32;6.45;;;;;;;1.09;80.12;101747.47;5009685;28;20030;-64
2022/04/04 01:03:29;;;;;;;9.65;6.13;;;;;;;1.10;79.75;101744.91;5009735;28;20025;-60
2022/04/04 01:05:57;;;;;;;9.68;6.47;;;;;;;1.11;79.99;101730.41;5009863;28;20347;-61
2022/04/04 01:08:24;;;;;;;9.23;6.10;;;;;;;1.11;79.52;101738.91;5010124;28;20030;-60
2022/04/04 01:10:49;;;;;;;9.25;6.32;;;;;;;1.12;79.76;101727.81;5002533;28;20505;-61
2022/04/04 01:13:15;;;;;;;9.98;6.35;;;;;;;1.07;79.57;101704.09;4990114;28;20042;-64
2022/04/04 01:15:41;;;;;;;8.82;6.03;;;;;;;1.13;78.93;101729.47;4989710;28;20050;-61
2022/04/04 01:18:07;;;;;;;10.45;6.65;;;;;;;1.15;78.94;101721.75;4972321;28;20052;-61
2022/04/04 01:20:34;;;;;;;9.85;6.65;;;;;;;1.15;78.72;101711.53;4990550;28;20041;-60
2022/04/04 01:23:00;;;;;;;9.38;6.15;;;;;;;1.13;79.01;101703.09;4990355;28;20022;-61
2022/04/04 01:25:27;;;;;;;11.50;6.57;;;;;;;1.12;79.29;101701.44;4989667;28;20077;-60
2022/04/04 01:27:54;;;;;;;9.35;6.97;;;;;;;1.10;78.89;101687.88;4989868;28;20022;-61
2022/04/04 01:30:21;;;;;;;9.73;6.97;;;;;;;1.11;78.70;101680.16;4989531;28;20069;-63
2022/04/04 01:32:46;;;;;;;10.35;7.00;;;;;;;1.14;78.72;101684.31;4993088;28;20061;-61
2022/04/04 01:35:11;;;;;;;9.77;7.05;;;;;;;1.16;78.11;101677.47;4992568;28;20108;-62
2022/04/04 01:37:37;;;;;;;8.77;6.90;;;;;;;1.15;78.75;101670.66;5008265;28;20068;-62
2022/04/04 01:40:06;;;;;;;12.13;7.70;;;;;;;1.11;78.36;101653.78;5001236;28;20033;-61
2022/04/04 01:42:31;;;;;;;;;;;;;;;1.23;78.16;101663.63;5009568;28;20504;-60
2022/04/04 01:44:57;;;;;;;9.75;7.65;;;;;;;1.16;78.36;101662.16;5009280;28;19913;-62
2022/04/04 01:47:22;;;;;;;11.07;7.82;;;;;;;1.13;78.08;101662.22;5008490;28;20030;-62
2022/04/04 01:49:48;;;;;;;10.48;8.23;;;;;;;1.13;77.64;101657.09;5009108;28;20315;-62
2022/04/04 01:52:13;;;;;;;9.90;7.57;;;;;;;1.12;78.03;101651.16;4999125;28;20037;-60
2022/04/04 01:54:38;;;;;;;12.10;8.20;;;;;;;1.11;77.68;101635.88;4989186;28;20066;-65
2022/04/04 01:57:04;;;;;;;13.65;8.73;;;;;;;1.11;77.78;101633.34;4989876;28;20387;-61
2022/04/04 01:59:30;;;;;;;12.15;9.15;;;;;;;1.08;77.55;101629.13;4989144;28;20026;-60
2022/04/04 02:01:55;;;;;;;10.68;8.25;;;;;;;1.12;77.90;101619.69;4971193;28;20038;-63
2022/04/04 02:04:20;;;;;;;10.95;9.43;;;;;;;1.04;77.92;101607.97;4988880;28;20030;-60
2022/04/04 02:06:46;;;;;;;11.55;9.55;;;;;;;1.08;77.68;101612.97;5006704;28;20042;-61
2022/04/04 02:09:12;;;;;;;12.77;9.95;;;;;;;1.09;77.97;101609.53;5008560;28;20018;-61
2022/04/04 02:11:37;;;;;;;11.68;9.68;;;;;;;1.10;77.58;101606.13;5008512;28;20384;-63
2022/04/04 02:14:03;;;;;;;12.15;9.85;;;;;;;1.09;77.76;101601.88;5008813;28;20033;-60
2022/04/04 02:16:29;;;;;;;11.95;10.05;;;;;;;1.08;77.77;101592.53;4990438;28;20564;-60
2022/04/04 02:18:54;;;;;;;11.85;10.00;;;;;;;1.06;77.69;101590.88;5008612;28;20128;-66
2022/04/04 02:21:20;;;;;;;13.85;10.48;;;;;;;1.09;77.97;101594.22;5007173;28;20029;-60
2022/04/04 02:23:45;;;;;;;14.40;10.23;;;;;;;1.06;78.09;101593.44;5008775;28;20034;-60
2022/04/04 02:26:11;;;;;;;12.95;10.05;;;;;;;1.11;77.56;101582.25;5008488;28;20030;-60
2022/04/04 02:28:36;;;;;;;16.48;11.13;;;;;;;1.11;77.79;101584.78;4990628;28;20520;-60
2022/04/04 02:31:02;;;;;;;13.63;10.63;;;;;;;1.11;77.37;101583.06;5007851;28;20489;-61
2022/04/04 02:33:27;;;;;;;14.48;10.25;;;;;;;1.14;77.49;101564.25;5007933;28;20025;-61
2022/04/04 02:35:53;;;;;;;12.63;10.50;;;;;;;1.16;77.52;101555.66;4997682;28;20066;-61
2022/04/04 02:38:21;;;;;;;12.23;10.80;;;;;;;1.12;77.76;101543.03;4988432;28;20030;-63
2022/04/04 02:40:46;;;;;;;12.65;10.18;;;;;;;1.17;77.66;101543.72;4970925;28;20538;-61
2022/04/04 02:43:12;;;;;;;12.98;10.20;;;;;;;1.13;77.53;101535.31;4988759;28;20034;-60
2022/04/04 02:45:37;;;;;;;11.57;9.85;;;;;;;1.18;77.31;101532.63;4970686;28;20036;-62
2022/04/04 02:48:03;;;;;;;12.73;10.63;;;;;;;1.19;77.27;101534.28;4970883;28;20056;-61
2022/04/04 02:50:29;;;;;;;12.63;9.93;;;;;;;1.18;77.35;101522.41;4979378;28;20076;-60
2022/04/04 02:52:55;;;;;;;13.80;10.55;;;;;;;1.16;77.41;101513.97;5008071;28;20018;-61
2022/04/04 02:58:05;;;;;;;14.13;10.88;;;;;;;1.24;77.58;101512.81;5008058;28;20052;-61
2022/04/04 03:00:31;;;;;;;13.35;10.40;;;;;;;1.21;77.55;101494.22;5007111;28;20034;-60
2022/04/04 03:02:57;;;;;;;13.65;10.13;;;;;;;1.26;77.10;101492.31;5007728;28;20034;-60
2022/04/04 03:05:23;;;;;;;13.30;9.95;;;;;;;1.27;77.75;101496.56;5006706;28;20088;-61
2022/04/04 03:07:50;;;;;;;14.48;10.43;;;;;;;1.22;77.35;101483.09;5007799;28;20030;-61
2022/04/04 03:10:16;;;;;;;14.43;10.27;;;;;;;1.30;77.51;101491.34;5007332;28;20061;-62
2022/04/04 03:12:43;;;;;;;14.13;10.55;;;;;;;1.29;77.45;101469.25;5007191;28;20111;-61
2022/04/04 03:15:20;;;;;;;12.68;9.95;;;;;;;1.34;77.31;101475.03;5006432;28;20057;-60
2022/04/04 03:17:51;;;;;;;13.10;10.35;;;;;;;1.33;77.60;101473.38;5007715;28;20374;-60
2022/04/04 03:20:18;;;;;;;13.00;10.15;;;;;;;1.28;77.44;101459.91;5007299;28;20520;-61
2022/04/04 03:22:46;;;;;;;12.13;10.43;;;;;;;1.34;77.34;101462.25;5007432;28;20377;-61
2022/04/04 03:25:13;;;;;;;13.60;10.88;;;;;;;1.36;77.41;101460.47;4989405;28;20034;-61
2022/04/04 03:27:39;;;;;;;13.48;10.05;;;;;;;1.36;77.31;101452.81;4998632;28;20037;-63
2022/04/04 03:30:07;;;;;;;11.35;9.77;;;;;;;1.37;77.77;101451.91;4987623;28;20486;-61
2022/04/04 03:32:33;;;;;;;11.98;10.05;;;;;;;1.38;77.37;101443.38;4987383;28;20033;-60
2022/04/04 03:34:59;;;;;;;12.07;9.70;;;;;;;1.36;77.92;101434.91;4987764;28;20026;-60
2022/04/04 03:37:25;;;;;;;11.57;9.80;;;;;;;1.40;77.58;101435.66;4987575;28;20033;-61
2022/04/04 03:39:51;;;;;;;12.18;9.98;;;;;;;1.40;77.56;101431.38;4987675;28;20041;-61
2022/04/04 03:42:17;;;;;;;12.20;10.07;;;;;;;1.39;77.59;101414.38;4994326;28;20034;-61
2022/04/04 03:44:42;;;;;;;12.10;9.93;;;;;;;1.37;77.85;101416.13;4995391;28;20493;-60
2022/04/04 03:47:07;;;;;;;12.73;9.75;;;;;;;1.37;77.77;101411.03;4985883;28;20117;-60
2022/04/04 03:49:33;;;;;;;15.80;10.43;;;;;;;1.46;77.51;101415.84;4994064;28;20031;-62
2022/04/04 03:51:58;;;;;;;12.95;9.88;;;;;;;1.45;77.42;101401.41;4985987;28;20068;-61
2022/04/04 03:54:24;;;;;;;13.70;9.25;;;;;;;1.51;77.54;101398.63;4989126;28;20482;-61
2022/04/04 03:56:50;;;;;;;12.00;9.55;;;;;;;1.53;77.66;101393.44;4984135;28;20257;-60
2022/04/04 03:59:15;;;;;;;12.02;9.82;;;;;;;1.53;77.75;101391.72;4998072;28;20077;-60
2022/04/04 04:01:41;;;;;;;11.90;9.52;;;;;;;1.53;77.40;101391.72;4991407;28;20574;-63
2022/04/04 04:04:06;;;;;;;13.73;9.45;;;;;;;1.57;77.31;101377.97;4986364;28;20022;-63
2022/04/04 04:06:33;;;;;;;14.35;10.02;;;;;;;1.60;77.85;101377.84;4985863;28;20030;-61
2022/04/04 04:08:59;;;;;;;12.80;10.13;;;;;;;1.62;77.43;101367.56;4986897;28;20030;-60
2022/04/04 04:11:25;;;;;;;12.50;9.70;;;;;;;1.64;77.14;101373.47;4985670;28;20463;-61
2022/04/04 04:13:50;;;;;;;13.75;9.82;;;;;;;1.62;77.59;101353.97;4986631;28;20026;-60
2022/04/04 04:16:16;;;;;;;12.10;9.43;;;;;;;1.62;77.35;101353.97;4986493;28;20093;-61
2022/04/04 04:18:42;;;;;;;13.27;9.95;;;;;;;1.66;77.30;101351.22;4997295;28;20370;-61
2022/04/04 04:21:09;;;;;;;11.68;9.52;;;;;;;1.70;77.69;101362.19;5001805;28;20053;-60
2022/04/04 04:23:39;;;;;;;11.50;9.40;;;;;;;1.71;77.34;101353.59;4969470;28;20026;-60
2022/04/04 04:26:06;;;;;;;14.10;9.77;;;;;;;1.74;77.80;101343.28;4974270;28;20057;-62
2022/04/04 04:28:32;;;;;;;12.13;9.70;;;;;;;1.74;77.80;101333.06;5005706;28;20030;-61
2022/04/04 04:30:59;;;;;;;11.55;9.57;;;;;;;1.78;77.77;101324.38;4988450;28;20057;-63
2022/04/04 04:33:24;;;;;;;14.00;9.70;;;;;;;1.78;77.89;101316.72;5006057;28;20017;-60
2022/04/04 04:35:50;;;;;;;13.15;9.70;;;;;;;1.82;77.60;101318.25;4991589;28;20421;-61
2022/04/04 04:38:16;;;;;;;13.30;10.23;;;;;;;1.82;77.64;101316.53;4988798;28;20475;-61
2022/04/04 04:40:42;;;;;;;13.48;9.88;;;;;;;1.85;77.83;101305.38;5006133;28;20080;-61
2022/04/04 04:43:07;;;;;;;12.60;10.00;;;;;;;1.87;77.96;101301.00;4988020;28;20059;-60
2022/04/04 04:45:33;;;;;;;12.95;9.93;;;;;;;1.91;77.82;101299.19;5006204;28;20030;-60
2022/04/04 04:47:58;;;;;;;12.60;10.25;;;;;;;1.92;77.72;101296.56;5006132;28;20038;-61
2022/04/04 04:50:24;;;;;;;13.35;10.07;;;;;;;1.93;77.65;101282.88;5003024;28;20108;-60
2022/04/04 04:52:50;;;;;;;14.25;10.20;;;;;;;1.96;77.63;101281.94;4985857;28;20109;-60
2022/04/04 04:55:18;;;;;;;14.50;10.38;;;;;;;1.99;77.66;101282.63;4985804;28;20023;-60
2022/04/04 04:57:44;;;;;;;14.38;10.63;;;;;;;2.03;77.97;101271.41;4990313;28;20033;-62
2022/04/04 05:00:12;;;;;;;14.68;11.75;;;;;;;2.06;77.62;101275.56;4985956;28;20118;-61
2022/04/04 05:02:38;;;;;;;13.50;10.57;;;;;;;2.08;77.61;101272.06;4985851;28;20018;-62
2022/04/04 05:05:07;;;;;;;14.30;11.15;;;;;;;2.10;78.15;101262.59;4968986;28;20029;-60
2022/04/04 05:07:33;;;;;;;15.18;10.85;;;;;;;2.09;78.06;101245.56;4989933;28;20033;-60
2022/04/04 05:09:58;;;;;;;13.57;10.70;;;;;;;2.21;77.31;101245.97;4986627;28;20327;-61
2022/04/04 05:12:24;;;;;;;15.25;11.43;;;;;;;2.22;77.26;101242.53;4985619;28;20022;-61
2022/04/04 05:14:49;;;;;;;12.77;10.60;;;;;;;2.26;77.11;101238.94;4986364;28;20054;-61
2022/04/04 05:17:15;;;;;;;13.50;11.00;;;;;;;2.29;77.20;101223.47;4988440;28;20022;-60
2022/04/04 05:19:41;;;;;;;12.43;10.65;;;;;;;2.31;76.99;101226.81;4987143;28;20049;-60
2022/04/04 05:22:07;;;;;;;15.05;11.00;;;;;;;2.35;76.82;101218.09;4986347;28;20037;-61
2022/04/04 05:24:33;;;;;;;14.98;10.32;;;;;;;2.32;77.11;101200.31;4997352;28;20026;-61
2022/04/04 05:26:59;;;;;;;12.35;10.63;;;;;;;2.35;76.80;101195.06;4986057;28;20251;-62
2022/04/04 05:29:26;;;;;;;14.68;10.70;;;;;;;2.44;76.41;101202.34;4986307;28;20031;-60
2022/04/04 05:31:56;;;;;;;14.68;10.68;;;;;;;2.45;76.53;101204.00;4968741;28;20049;-60
2022/04/04 05:34:22;;;;;;;12.00;10.18;;;;;;;2.43;76.14;101185.34;4976106;28;20459;-61
2022/04/04 05:36:49;;;;;;;14.48;10.38;;;;;;;2.51;76.48;101193.53;4993390;28;20328;-64
2022/04/04 05:39:14;;;;;;;13.52;10.93;;;;;;;2.56;76.42;101191.59;4992360;28;20061;-61
2022/04/04 05:41:40;;;;;;;13.52;10.30;;;;;;;2.57;76.13;101180.47;4989087;28;20497;-61
2022/04/04 05:44:06;;;;;;;16.40;11.07;;;;;;;2.57;76.09;101171.94;4990009;28;20121;-61
2022/04/04 05:46:32;;;;;;;14.32;10.35;;;;;;;2.64;76.10;101174.19;4971178;28;20037;-61
2022/04/04 05:48:58;;;;;;;13.05;10.68;;;;;;;2.65;76.32;101175.84;4990813;28;20050;-70
2022/04/04 05:51:24;;;;;;;13.32;10.63;;;;;;;2.69;75.37;101171.41;4989586;28;20112;-61
2022/04/04 05:53:49;;;;;;;13.38;10.85;;;;;;;2.71;75.93;101168.81;4989002;28;20041;-64
2022/04/04 05:56:14;;;;;;;16.92;11.30;;;;;;;2.72;76.12;101150.81;4988734;28;20034;-61
2022/04/04 05:58:42;;;;;;;14.98;11.00;;;;;;;2.76;75.64;101146.41;4988752;28;20093;-63
2022/04/04 06:01:08;;;;;;;12.98;10.38;;;;;;;2.75;75.77;101139.59;4971689;28;20030;-62
2022/04/04 06:03:34;;;;;;;13.52;10.50;;;;;;;2.82;75.48;101141.81;4988697;28;20109;-61
2022/04/04 06:06:01;;;;;;;16.38;11.93;;;;;;;2.83;75.51;101137.53;4988832;28;20034;-63
2022/04/04 06:08:26;;;;;;;15.13;11.10;;;;;;;2.87;75.39;101139.91;4997329;28;20068;-61
2022/04/04 06:10:52;;;;;;;13.27;10.75;;;;;;;2.92;74.66;101132.84;5009015;28;20054;-61
2022/04/04 06:13:19;;;;;;;13.63;10.88;;;;;;;2.95;74.96;101121.59;5008207;28;20026;-62
2022/04/04 06:15:45;;;;;;;15.40;10.57;;;;;;;2.99;75.15;101118.03;5008885;28;20049;-61
2022/04/04 06:18:13;;;;;;;15.25;11.35;;;;;;;2.97;75.10;101114.69;5004834;28;20022;-61
2022/04/04 06:20:38;;;;;;;12.57;11.13;;;;;;;3.05;74.75;101117.75;4989306;28;20294;-61
2022/04/04 06:23:04;;;;;;;12.77;10.85;;;;;;;3.10;74.99;101105.56;4996269;28;20105;-62
2022/04/04 06:25:29;;;;;;;14.95;10.60;;;;;;;3.12;74.66;101092.66;4988754;28;20574;-61
2022/04/04 06:27:55;;;;;;;13.45;10.70;;;;;;;3.15;74.02;101098.47;4990217;28;20084;-61
2022/04/04 06:30:21;;;;;;;13.82;11.13;;;;;;;3.18;74.43;101103.44;4996300;28;20030;-62
2022/04/04 06:32:46;;;;;;;14.40;10.52;;;;;;;3.22;74.50;101087.94;4994713;28;20823;-61
2022/04/04 06:35:13;;;;;;;13.23;11.30;;;;;;;3.23;74.16;101094.72;5005375;28;20029;-65
2022/04/04 06:37:38;;;;;;;13.15;10.57;;;;;;;3.28;73.85;101087.66;4971028;28;20054;-64
2022/04/04 06:40:04;;;;;;;13.23;10.93;;;;;;;3.28;74.00;101072.28;4990669;28;20060;-61
2022/04/04 06:42:34;;;;;;;13.10;10.93;;;;;;;3.31;73.39;101077.25;4985191;28;20065;-61
2022/04/04 06:44:59;;;;;;;11.75;10.10;;;;;;;3.35;73.48;101068.50;4988645;28;20041;-63
2022/04/04 06:47:26;;;;;;;13.60;10.45;;;;;;;3.37;73.44;101067.53;4983147;28;20030;-61
2022/04/04 06:49:52;;;;;;;14.40;10.80;;;;;;;3.40;73.44;101066.56;5007102;28;20021;-61
2022/04/04 06:52:18;;;;;;;11.68;10.30;;;;;;;3.41;72.81;101048.53;4989790;28;20614;-62
2022/04/04 06:54:44;;;;;;;11.80;10.23;;;;;;;3.48;72.99;101049.06;5007931;28;20488;-61
2022/04/04 06:57:09;;;;;;;12.82;10.40;;;;;;;3.51;73.10;101048.94;4987621;28;20077;-64
2022/04/04 06:59:34;;;;;;;13.05;10.10;;;;;;;3.53;72.92;101049.66;4987279;28;20077;-62
2022/04/04 07:02:00;;;;;;;12.23;9.98;;;;;;;3.58;72.79;101034.06;4997496;28;20441;-61
2022/04/04 07:04:25;;;;;;;13.00;10.10;;;;;;;3.61;72.58;101034.75;4988474;28;20030;-64
2022/04/04 07:06:50;;;;;;;14.27;9.98;;;;;;;3.65;72.20;101025.16;4987907;28;20022;-61
2022/04/04 07:09:16;;;;;;;10.65;9.13;;;;;;;3.72;72.19;101027.34;4970542;28;20434;-61
2022/04/04 07:11:41;;;;;;;12.18;9.73;;;;;;;3.75;73.22;101022.97;4987834;28;20061;-69
2022/04/04 07:14:06;;;;;;;11.98;9.55;;;;;;;3.78;73.20;101033.06;4988130;28;20038;-61
2022/04/04 07:16:32;;;;;;;10.65;9.10;;;;;;;3.80;73.28;101019.28;4969908;28;20133;-60
2022/04/04 07:18:57;;;;;;;11.60;9.48;;;;;;;3.89;72.99;101015.41;4985230;28;20034;-64
2022/04/04 07:21:23;;;;;;;12.43;10.00;;;;;;;3.92;72.96;100993.00;4979010;28;20528;-61
2022/04/04 07:23:49;;;;;;;12.10;9.30;;;;;;;4.01;72.74;101007.06;4984556;28;20030;-62
2022/04/04 07:26:19;;;;;;;12.63;9.75;;;;;;;4.05;72.95;101003.44;4985429;28;20026;-61
2022/04/04 07:28:45;;;;;;;12.18;10.15;;;;;;;4.07;73.99;101006.78;4986523;28;20034;-63
2022/04/04 07:31:11;;;;;;;12.77;10.65;;;;;;;4.09;73.35;101010.09;4988578;28;20514;-63
2022/04/04 07:33:36;;;;;;;12.13;9.77;;;;;;;4.13;74.04;100995.34;4988322;28;20169;-61
2022/04/04 07:36:02;;;;;;;12.02;10.57;;;;;;;4.15;73.60;100989.25;4992567;28;20029;-63
2022/04/04 07:38:27;;;;;;;12.02;10.77;;;;;;;4.14;73.57;100997.84;4989567;28;20037;-61
2022/04/04 07:40:52;;;;;;;12.50;10.63;;;;;;;4.18;73.10;100991.63;4977566;28;20034;-61
2022/04/04 07:43:18;;;;;;;12.52;11.00;;;;;;;4.20;73.83;100982.13;4989646;28;20045;-61
2022/04/04 07:45:43;;;;;;;14.60;11.13;;;;;;;4.20;73.99;100987.25;4996183;28;20421;-61
2022/04/04 07:48:10;;;;;;;13.85;11.43;;;;;;;4.20;74.23;100977.00;4983841;28;20040;-62
2022/04/04 07:50:36;;;;;;;14.23;11.40;;;;;;;4.21;75.13;100973.50;4988214;28;20022;-64
2022/04/04 07:53:02;;;;;;;13.93;11.98;;;;;;;4.17;75.41;100955.78;5002163;28;20091;-61
2022/04/04 07:55:27;;;;;;;12.82;11.48;;;;;;;4.22;75.14;100964.91;5006434;28;20033;-64
2022/04/04 07:57:52;;;;;;;15.40;11.75;;;;;;;4.20;75.72;100959.03;5006940;28;20036;-62
2022/04/04 08:00:18;;;;;;;14.52;12.00;;;;;;;4.23;75.96;100956.28;5006171;28;20466;-62
2022/04/04 08:02:44;;;;;;;15.05;11.90;;;;;;;4.22;76.23;100954.63;5005295;28;20026;-65
2022/04/04 08:05:10;;;;;;;15.20;11.88;;;;;;;4.22;76.47;100949.50;4986814;28;20030;-62
2022/04/04 08:07:40;;;;;;;14.38;12.30;;;;;;;4.22;76.48;100936.66;4991541;28;20033;-62
2022/04/04 08:10:06;;;;;;;13.73;12.07;;;;;;;4.25;76.55;100931.38;5006581;28;20049;-62
2022/04/04 08:12:32;;;;;;;15.95;12.35;;;;;;;4.28;77.10;100914.13;5006396;28;20083;-64
2022/04/04 08:14:58;;;;;;;14.32;12.82;;;;;;;4.25;77.07;100902.31;5006636;28;20561;-62
2022/04/04 08:17:24;;;;;;;12.75;11.30;;;;;;;4.30;75.80;100900.31;4994925;28;20121;-64
2022/04/04 08:19:50;;;;;;;13.73;12.32;;;;;;;4.35;76.69;100913.72;4986832;28;20034;-65
2022/04/04 08:22:18;;;;;;;14.98;13.35;;;;;;;4.39;76.76;100906.69;4986814;28;20050;-63
2022/04/04 08:24:44;;;;;;;16.15;12.52;;;;;;;4.44;76.47;100899.56;4986557;28;20037;-65
2022/04/04 08:27:10;;;;;;;13.45;12.00;;;;;;;4.47;75.81;100886.53;4986856;28;20419;-61
2022/04/04 08:29:36;;;;;;;14.63;12.73;;;;;;;4.47;76.01;100886.53;4986300;28;20689;-65
2022/04/04 08:32:02;;;;;;;13.82;12.35;;;;;;;4.56;76.08;100896.31;4986427;28;20030;-61
2022/04/04 08:34:28;;;;;;;15.40;12.88;;;;;;;4.59;75.63;100883.31;4978708;28;20034;-63
2022/04/04 08:36:54;;;;;;;17.08;12.48;;;;;;;4.61;75.10;100884.03;5001570;28;20022;-61
2022/04/04 08:39:19;;;;;;;16.33;12.65;;;;;;;4.66;74.69;100887.19;5003468;28;20056;-65
2022/04/04 08:41:45;;;;;;;14.88;12.35;;;;;;;4.70;74.00;100869.84;5006361;28;20083;-61
2022/04/04 08:44:11;;;;;;;14.25;12.65;;;;;;;4.73;74.61;100878.22;5006235;28;20026;-61
2022/04/04 08:46:37;;;;;;;16.50;12.27;;;;;;;4.76;74.97;100882.38;4990884;28;20030;-63
2022/04/04 08:49:06;;;;;;;17.20;12.90;;;;;;;4.80;74.68;100879.50;4986642;28;20024;-63
2022/04/04 08:51:32;;;;;;;16.70;12.25;;;;;;;4.76;74.33;100856.69;4986254;28;20053;-61
2022/04/04 08:53:58;;;;;;;16.58;12.02;;;;;;;4.82;74.04;100851.19;4986368;28;20509;-66
2022/04/04 08:56:24;;;;;;;16.95;12.13;;;;;;;4.77;73.77;100854.00;5003089;28;20733;-64
2022/04/04 08:58:51;;;;;;;15.13;12.48;;;;;;;4.81;74.18;100852.06;5006308;28;20072;-61
2022/04/04 09:01:21;;;;;;;14.68;12.00;;;;;;;4.82;74.64;100865.75;4998292;28;20049;-63
2022/04/04 09:04:01;;;;;;;16.42;12.45;;;;;;;4.83;74.70;100857.16;4985953;28;20057;-64
2022/04/04 09:06:28;;;;;;;15.05;12.85;;;;;;;4.84;74.94;100848.53;5005250;28;20042;-63
2022/04/04 09:08:55;;;;;;;16.10;13.10;;;;;;;4.85;75.86;100861.28;4986342;28;20386;-64
2022/04/04 09:11:21;;;;;;;17.67;13.07;;;;;;;4.82;75.84;100834.91;5003635;28;20036;-63
2022/04/04 09:14:02;;;;;;;15.20;12.68;;;;;;;4.87;75.98;100843.19;4994294;28;20046;-62
2022/04/04 09:16:28;;;;;;;16.90;13.27;;;;;;;4.86;76.25;100847.50;4991269;28;20078;-64
2022/04/04 09:18:53;;;;;;;15.50;12.93;;;;;;;4.84;77.91;100844.19;4988185;28;20054;-62
2022/04/04 09:21:18;;;;;;;16.05;14.05;;;;;;;4.86;78.32;100836.41;4988418;28;20019;-61
2022/04/04 09:23:49;;;;;;;17.40;13.90;;;;;;;4.84;78.61;100828.78;4990060;28;20022;-61
2022/04/04 09:26:33;;;;;;;15.93;14.15;;;;;;;4.86;79.17;100820.97;4971790;28;20113;-64
2022/04/04 09:29:01;;;;;;;17.05;13.70;;;;;;;4.78;79.47;100808.59;4990086;28;20030;-63
2022/04/04 09:31:27;;;;;;;16.65;14.45;;;;;;;4.84;79.80;100822.81;5005856;28;20553;-62
2022/04/04 09:33:53;;;;;;;17.25;13.98;;;;;;;4.80;79.99;100822.97;5001439;28;20029;-62
2022/04/04 09:36:19;;;;;;;16.42;13.98;;;;;;;4.77;80.14;100823.19;5003966;28;20034;-62
2022/04/04 09:38:59;;;;;;;16.85;14.23;;;;;;;4.79;81.04;100826.47;4990036;28;20056;-62
2022/04/04 09:41:25;;;;;;;16.85;15.00;;;;;;;4.76;81.56;100821.53;4989538;28;20057;-62
2022/04/04 09:44:04;;;;;;;15.98;14.25;;;;;;;4.72;81.64;100825.19;4989477;28;20475;-67
2022/04/04 09:46:37;;;;;;;16.55;13.93;;;;;;;4.68;82.24;100813.41;4989093;28;20072;-65
2022/04/04 09:49:07;;;;;;;17.33;14.30;;;;;;;4.67;82.10;100818.66;4989810;28;20076;-61
2022/04/04 09:51:54;;;;;;;16.92;14.45;;;;;;;4.68;82.55;100804.88;4989069;28;20467;-61
2022/04/04 09:54:20;;;;;;;17.60;15.07;;;;;;;4.63;83.06;100819.72;4989165;28;20030;-68
2022/04/04 09:56:47;;;;;;;17.30;15.60;;;;;;;4.61;83.65;100808.72;4989759;28;20481;-61
2022/04/04 09:59:14;;;;;;;16.67;14.48;;;;;;;4.61;83.11;100796.72;4989264;28;20112;-61
2022/04/04 10:01:42;;;;;;;18.60;13.77;;;;;;;4.61;83.42;100796.72;4988221;28;20103;-65
2022/04/04 10:04:08;;;;;;;18.55;14.40;;;;;;;4.57;84.04;100800.34;4988940;28;20773;-61
2022/04/04 10:06:34;;;;;;;15.75;13.88;;;;;;;4.56;84.04;100788.44;4988506;28;20121;-62
2022/04/04 10:09:02;;;;;;;17.00;15.23;;;;;;;4.59;84.68;100788.28;4988990;28;20129;-61
2022/04/04 10:11:30;;;;;;;16.73;14.48;;;;;;;4.55;84.65;100771.38;4988967;28;20038;-61
2022/04/04 10:13:56;;;;;;;17.38;15.23;;;;;;;4.66;84.54;100774.16;4989351;28;20034;-66
2022/04/04 10:16:22;;;;;;;18.33;14.63;;;;;;;4.63;85.30;100784.59;4987652;28;20158;-64
2022/04/04 10:18:48;;;;;;;16.58;14.93;;;;;;;4.66;85.48;100794.69;4988444;28;20027;-64
2022/04/04 10:21:14;;;;;;;17.83;15.88;;;;;;;4.67;85.59;100796.34;4988688;28;20026;-62
2022/04/04 10:23:41;;;;;;;17.40;15.02;;;;;;;4.69;85.19;100781.66;4987797;28;20382;-61
2022/04/04 10:26:07;;;;;;;20.52;17.02;;;;;;;4.63;85.60;100774.31;4989272;28;20076;-63
2022/04/04 10:28:35;;;;;;;21.23;17.15;;;;;;;4.68;85.58;100782.59;5004129;28;20040;-61
2022/04/04 10:31:18;;;;;;;21.50;17.37;;;;;;;4.70;85.85;100775.63;4999563;28;20105;-65
2022/04/04 10:33:44;;;;;;;17.40;15.70;;;;;;;4.70;85.47;100769.66;4987347;28;20498;-66
2022/04/04 10:36:16;;;;;;;19.67;16.60;;;;;;;4.70;86.00;100773.06;4987523;28;20030;-62
2022/04/04 10:38:44;;;;;;;19.88;17.77;;;;;;;4.67;86.33;100770.66;4987545;28;20505;-66
2022/04/04 10:41:09;;;;;;;18.65;16.85;;;;;;;4.70;86.23;100767.94;4987223;28;20022;-62
2022/04/04 10:43:37;;;;;;;19.58;16.50;;;;;;;4.72;86.51;100752.41;4994111;28;20362;-65
2022/04/04 10:46:09;;;;;;;16.33;14.63;;;;;;;4.71;86.64;100746.47;4986979;28;20030;-61
2022/04/04 10:48:37;;;;;;;16.70;14.93;;;;;;;4.73;86.95;100744.63;4988207;28;20027;-61
2022/04/04 10:51:11;;;;;;;15.55;13.95;;;;;;;4.75;87.22;100758.19;4973271;28;20433;-61
2022/04/04 10:53:44;;;;;;;13.27;11.98;;;;;;;4.73;86.62;100744.63;4988715;28;20125;-62
2022/04/04 10:56:17;;;;;;;14.43;12.43;;;;;;;4.74;86.82;100735.16;4989410;28;20037;-61
2022/04/04 10:58:43;;;;;;;15.35;13.73;;;;;;;4.73;87.34;100731.78;4987745;28;20030;-62
2022/04/04 11:01:19;;;;;;;15.77;14.18;;;;;;;4.75;87.50;100731.66;4988321;28;20025;-62
2022/04/04 11:04:00;;;;;;;17.52;15.68;;;;;;;4.77;87.78;100735.81;4988137;28;20443;-61
2022/04/04 11:09:26;;;;;;;16.10;14.25;;;;;;;4.70;87.90;100711.41;4987068;28;20077;-62
2022/04/04 11:12:28;;;;;;;16.92;15.15;;;;;;;4.78;87.99;100710.94;4987821;28;20037;-62
2022/04/04 11:15:07;;;;;;;17.65;15.85;;;;;;;4.76;88.25;100718.75;4936795;28;20057;-62
2022/04/04 11:17:57;;;;;;;17.67;15.95;;;;;;;4.79;88.76;100703.16;4969868;28;20030;-61
2022/04/04 11:20:31;;;;;;;17.08;15.18;;;;;;;4.75;88.51;100706.81;4940917;28;20977;-62
2022/04/04 11:23:03;;;;;;;17.75;15.95;;;;;;;4.78;88.44;100698.94;4987616;28;20042;-62
2022/04/04 11:25:34;;;;;;;18.83;16.92;;;;;;;4.78;88.66;100686.06;4989635;28;20397;-61